createdAt,value
2017-12-11T00:00:19.827Z,97626.81
2017-12-11T00:02:47.451Z,97628.75
2017-12-11T00:05:15.110Z,97639.30
2017-12-11T00:07:42.706Z,97641.02
2017-12-11T00:10:10.314Z,97622.82
2017-12-11T00:12:37.893Z,97629.34
2017-12-11T00:15:05.510Z,97628.97
2017-12-11T00:17:33.093Z,97617.11
2017-12-11T00:20:00.980Z,97617.52
2017-12-11T00:22:40.729Z,97605.70
2017-12-11T00:25:08.342Z,97607.11
2017-12-11T00:27:35.964Z,97605.67
2017-12-11T00:30:03.566Z,97613.45
2017-12-11T00:32:31.149Z,97605.45
2017-12-11T00:34:59.045Z,97606.17
2017-12-11T00:37:26.635Z,97601.86
2017-12-11T00:39:54.261Z,97608.11
2017-12-11T00:42:21.841Z,97608.70
2017-12-11T00:44:49.436Z,97613.54
2017-12-11T00:47:17.159Z,97600.89
2017-12-11T00:49:44.748Z,97606.95
2017-12-11T00:52:12.504Z,97604.33
2017-12-11T00:54:40.104Z,97601.15
2017-12-11T00:57:07.730Z,97598.62
2017-12-11T00:59:35.327Z,97595.92
2017-12-11T01:02:02.904Z,97603.64
2017-12-11T01:04:30.532Z,97609.64
2017-12-11T01:06:58.462Z,97604.91
2017-12-11T01:09:26.063Z,97604.56
2017-12-11T01:11:53.704Z,97595.48
2017-12-11T01:14:21.297Z,97602.50
2017-12-11T01:16:48.936Z,97603.30
2017-12-11T01:19:16.520Z,97602.73
2017-12-11T01:21:44.106Z,97609.00
2017-12-11T01:24:11.996Z,97612.25
2017-12-11T01:26:39.588Z,97609.45
2017-12-11T01:29:07.216Z,97618.17
2017-12-11T01:31:34.792Z,97610.27
2017-12-11T01:34:02.387Z,97606.56
2017-12-11T01:36:29.987Z,97604.53
2017-12-11T01:38:57.576Z,97608.98
2017-12-11T01:41:25.188Z,97606.05
2017-12-11T01:43:52.824Z,97607.77
2017-12-11T01:46:20.419Z,97604.14
2017-12-11T01:48:48.425Z,97614.45
2017-12-11T01:51:16.018Z,97609.48
2017-12-11T01:53:43.632Z,97613.46
2017-12-11T01:56:11.238Z,97625.08
2017-12-11T01:58:38.806Z,97625.16
2017-12-11T02:01:06.412Z,97619.91
2017-12-11T02:03:34.312Z,97617.23
2017-12-11T02:06:01.946Z,97627.17
2017-12-11T02:08:29.516Z,97629.69
2017-12-11T02:10:57.103Z,97639.89
2017-12-11T02:13:24.770Z,97637.02
2017-12-11T02:15:52.363Z,97640.05
2017-12-11T02:18:19.990Z,97648.94
2017-12-11T02:20:48.882Z,97647.94
2017-12-11T02:23:16.916Z,97648.52
2017-12-11T02:25:44.820Z,97656.50
2017-12-11T02:28:12.697Z,97653.63
2017-12-11T02:30:40.324Z,97661.64
2017-12-11T02:33:07.912Z,97666.07
2017-12-11T02:35:35.477Z,97671.31
2017-12-11T02:38:03.127Z,97674.56
2017-12-11T02:40:30.789Z,97668.58
2017-12-11T02:42:58.451Z,97672.23
2017-12-11T02:45:26.061Z,97667.05
2017-12-11T02:47:53.895Z,97667.56
2017-12-11T02:50:21.492Z,97675.84
2017-12-11T02:52:49.108Z,97679.80
2017-12-11T02:55:16.736Z,97685.28
2017-12-11T02:57:44.317Z,97697.12
2017-12-11T03:00:12.194Z,97693.56
2017-12-11T03:02:39.804Z,97685.25
2017-12-11T03:05:07.629Z,97693.16
2017-12-11T03:07:35.255Z,97693.06
2017-12-11T03:10:02.832Z,97697.63
2017-12-11T03:12:30.409Z,97699.66
2017-12-11T03:14:58.274Z,97694.28
2017-12-11T03:17:25.854Z,97697.55
2017-12-11T03:19:53.460Z,97697.45
2017-12-11T03:22:21.060Z,97691.23
2017-12-11T03:24:48.633Z,97695.70
2017-12-11T03:27:16.224Z,97692.05
2017-12-11T03:29:43.842Z,97689.17
2017-12-11T03:32:11.420Z,97695.56
2017-12-11T03:34:39.070Z,97702.86
2017-12-11T03:37:06.772Z,97712.70
2017-12-11T03:39:34.369Z,97715.75
2017-12-11T03:42:02.060Z,97723.16
2017-12-11T03:44:29.920Z,97729.72
2017-12-11T03:46:57.502Z,97738.55
2017-12-11T03:49:25.123Z,97750.80
2017-12-11T03:51:52.697Z,97755.77
2017-12-11T03:54:20.320Z,97757.39
2017-12-11T03:56:47.911Z,97758.91
2017-12-11T03:59:15.566Z,97764.70
2017-12-11T04:01:43.232Z,97754.55
2017-12-11T04:04:10.807Z,97756.45
2017-12-11T04:06:38.444Z,97769.34
2017-12-11T04:09:06.025Z,97783.14
2017-12-11T04:11:33.851Z,97799.69
2017-12-11T04:14:01.496Z,97824.15
2017-12-11T04:16:29.336Z,97829.83
2017-12-11T04:18:56.964Z,97842.42
2017-12-11T04:21:24.557Z,97856.66
2017-12-11T04:23:52.181Z,97875.51
2017-12-11T04:26:20.088Z,97885.05
2017-12-11T04:28:47.710Z,97892.97
2017-12-11T04:31:15.376Z,97904.92
2017-12-11T04:33:42.969Z,97906.45
2017-12-11T04:36:10.595Z,97914.47
2017-12-11T04:38:38.256Z,97929.59
2017-12-11T04:41:05.828Z,97931.52
2017-12-11T04:43:33.478Z,97932.66
2017-12-11T04:46:01.055Z,97953.87
2017-12-11T04:48:28.634Z,97958.54
2017-12-11T04:50:56.258Z,97969.90
2017-12-11T04:53:23.832Z,97982.18
2017-12-11T04:55:51.473Z,97987.47
2017-12-11T04:58:19.300Z,98012.14
2017-12-11T05:00:46.881Z,98016.63
2017-12-11T05:03:14.484Z,98020.04
2017-12-11T05:05:42.063Z,98028.79
2017-12-11T05:08:09.689Z,98023.31
2017-12-11T05:10:37.289Z,98022.09
2017-12-11T05:13:04.902Z,98028.98
2017-12-11T05:15:32.502Z,98045.44
2017-12-11T05:18:00.097Z,98045.62
2017-12-11T05:20:27.701Z,98047.95
2017-12-11T05:22:55.269Z,98066.53
2017-12-11T05:25:22.840Z,98060.73
2017-12-11T05:27:50.456Z,98062.47
2017-12-11T05:30:18.040Z,98079.93
2017-12-11T05:32:45.665Z,98076.16
2017-12-11T05:35:13.338Z,98075.95
2017-12-11T05:37:40.923Z,98076.15
2017-12-11T05:40:08.540Z,98067.34
2017-12-11T05:42:36.141Z,98058.42
2017-12-11T05:47:37.612Z,98064.80
2017-12-11T05:50:05.563Z,98058.39
2017-12-11T05:52:33.152Z,98060.83
2017-12-11T05:55:00.724Z,98058.69
2017-12-11T05:57:28.340Z,98056.87
2017-12-11T05:59:55.924Z,98069.01
2017-12-11T06:02:23.584Z,98087.18
2017-12-11T06:04:51.168Z,98096.80
2017-12-11T06:07:18.764Z,98103.61
2017-12-11T06:09:46.392Z,98102.37
2017-12-11T06:12:14.029Z,98100.64
2017-12-11T06:14:41.665Z,98106.30
2017-12-11T06:17:09.259Z,98110.06
2017-12-11T06:19:37.113Z,98114.81
2017-12-11T06:22:04.735Z,98113.62
2017-12-11T06:24:32.311Z,98134.91
2017-12-11T06:26:59.933Z,98131.81
2017-12-11T06:29:27.532Z,98161.91
2017-12-11T06:31:55.121Z,98172.73
2017-12-11T06:34:22.729Z,98175.91
2017-12-11T06:36:50.344Z,98185.95
2017-12-11T06:39:18.064Z,98191.91
2017-12-11T06:41:45.652Z,98206.06
2017-12-11T06:44:13.256Z,98216.54
2017-12-11T06:46:40.878Z,98214.00
2017-12-11T06:49:08.757Z,98223.95
2017-12-11T06:51:36.727Z,98239.55
2017-12-11T06:54:04.593Z,98249.55
2017-12-11T06:56:32.176Z,98245.33
2017-12-11T06:58:59.878Z,98251.86
2017-12-11T07:01:27.460Z,98255.78
2017-12-11T07:03:55.069Z,98251.01
2017-12-11T07:06:22.706Z,98246.83
2017-12-11T07:08:50.400Z,98244.09
2017-12-11T07:11:18.007Z,98233.89
2017-12-11T07:13:45.592Z,98240.06
2017-12-11T07:16:13.247Z,98243.02
2017-12-11T07:18:40.827Z,98247.87
2017-12-11T07:21:08.424Z,98259.60
2017-12-11T07:23:36.041Z,98267.55
2017-12-11T07:26:03.624Z,98271.37
2017-12-11T07:28:31.268Z,98278.13
2017-12-11T07:30:58.849Z,98291.16
2017-12-11T07:33:26.498Z,98287.83
2017-12-11T07:35:54.456Z,98285.02
2017-12-11T07:38:22.063Z,98285.20
2017-12-11T07:40:49.668Z,98277.91
2017-12-11T07:43:17.259Z,98283.99
2017-12-11T07:45:44.852Z,98274.14
2017-12-11T07:48:12.720Z,98274.67
2017-12-11T07:50:40.321Z,98274.48
2017-12-11T07:53:07.928Z,98275.40
2017-12-11T07:55:35.988Z,98281.22
2017-12-11T07:58:04.224Z,98270.87
2017-12-11T08:00:31.835Z,98280.67
2017-12-11T08:02:59.404Z,98284.53
2017-12-11T08:05:27.020Z,98306.61
2017-12-11T08:07:54.852Z,98306.76
2017-12-11T08:10:22.461Z,98303.25
2017-12-11T08:12:50.320Z,98305.26
2017-12-11T08:15:18.551Z,98302.07
2017-12-11T08:17:46.216Z,98310.80
2017-12-11T08:20:13.846Z,98315.30
2017-12-11T08:22:41.456Z,98320.44
2017-12-11T08:25:09.156Z,98318.25
2017-12-11T08:27:36.765Z,98331.38
2017-12-11T08:30:04.394Z,98321.92
2017-12-11T08:32:32.016Z,98335.88
2017-12-11T08:34:59.643Z,98338.75
2017-12-11T08:37:27.565Z,98339.20
2017-12-11T08:39:55.151Z,98336.66
2017-12-11T08:42:23.097Z,98330.55
2017-12-11T08:44:50.707Z,98338.38
2017-12-11T08:47:18.331Z,98336.12
2017-12-11T08:49:46.198Z,98330.75
2017-12-11T08:52:13.790Z,98329.44
2017-12-11T08:54:41.426Z,98320.06
2017-12-11T08:57:09.067Z,98330.25
2017-12-11T08:59:36.708Z,98333.80
2017-12-11T09:02:04.355Z,98337.39
2017-12-11T09:04:31.968Z,98349.80
2017-12-11T09:06:59.619Z,98354.94
2017-12-11T09:09:27.229Z,98358.77
2017-12-11T09:11:54.883Z,98358.25
2017-12-11T09:14:22.820Z,98359.84
2017-12-11T09:16:50.432Z,98355.34
2017-12-11T09:19:18.071Z,98363.13
2017-12-11T09:21:45.652Z,98377.03
2017-12-11T09:24:13.294Z,98393.17
2017-12-11T09:26:40.896Z,98396.48
2017-12-11T09:29:08.517Z,98400.22
2017-12-11T09:31:36.124Z,98400.63
2017-12-11T09:34:03.724Z,98408.45
2017-12-11T09:36:31.362Z,98421.22
2017-12-11T09:38:59.018Z,98428.22
2017-12-11T09:41:28.129Z,98429.86
2017-12-11T09:43:55.760Z,98406.72
2017-12-11T09:46:23.386Z,98408.44
2017-12-11T09:48:51.027Z,98411.16
2017-12-11T09:51:18.649Z,98397.11
2017-12-11T09:53:46.253Z,98389.34
2017-12-11T09:56:13.916Z,98378.88
2017-12-11T09:58:41.517Z,98366.77
2017-12-11T10:01:09.088Z,98368.17
2017-12-11T10:03:36.711Z,98376.03
2017-12-11T10:06:04.533Z,98374.02
2017-12-11T10:08:32.117Z,98386.71
2017-12-11T10:10:59.734Z,98386.72
2017-12-11T10:13:27.339Z,98366.48
2017-12-11T10:15:54.917Z,98364.84
2017-12-11T10:18:22.533Z,98376.66
2017-12-11T10:20:50.136Z,98363.47
2017-12-11T10:23:17.721Z,98363.25
2017-12-11T10:25:45.361Z,98371.25
2017-12-11T10:28:13.184Z,98359.94
2017-12-11T10:30:40.807Z,98367.03
2017-12-11T10:33:08.381Z,98365.02
2017-12-11T10:35:35.967Z,98374.53
2017-12-11T10:38:03.621Z,98371.80
2017-12-11T10:40:31.249Z,98374.48
2017-12-11T10:42:58.878Z,98362.77
2017-12-11T10:45:26.478Z,98351.12
2017-12-11T10:47:54.051Z,98360.26
2017-12-11T10:50:21.908Z,98361.02
2017-12-11T10:52:49.488Z,98364.84
2017-12-11T10:55:17.138Z,98365.16
2017-12-11T10:57:44.727Z,98363.15
2017-12-11T11:00:12.356Z,98368.74
2017-12-11T11:02:40.046Z,98362.47
2017-12-11T11:05:07.627Z,98365.84
2017-12-11T11:07:35.261Z,98345.70
2017-12-11T11:10:03.269Z,98342.98
2017-12-11T11:12:30.864Z,98344.25
2017-12-11T11:14:58.618Z,98354.52
2017-12-11T11:17:26.261Z,98342.29
2017-12-11T11:19:53.882Z,98344.42
2017-12-11T11:22:21.491Z,98341.79
2017-12-11T11:24:49.077Z,98341.69
2017-12-11T11:27:16.688Z,98345.88
2017-12-11T11:29:44.292Z,98336.45
2017-12-11T11:32:12.010Z,98335.64
2017-12-11T11:34:39.619Z,98335.33
2017-12-11T11:37:07.690Z,98336.55
2017-12-11T11:39:35.328Z,98335.55
2017-12-11T11:42:03.329Z,98335.95
2017-12-11T11:44:30.977Z,98336.58
2017-12-11T11:46:58.560Z,98322.80
2017-12-11T11:49:26.383Z,98327.58
2017-12-11T11:51:53.999Z,98321.07
2017-12-11T11:54:21.841Z,98319.84
2017-12-11T11:56:49.472Z,98300.59
2017-12-11T11:59:17.095Z,98304.64
2017-12-11T12:01:44.676Z,98299.81
2017-12-11T12:04:12.296Z,98279.20
2017-12-11T12:06:39.904Z,98263.91
2017-12-11T12:09:07.568Z,98261.74
2017-12-11T12:11:35.159Z,98283.38
2017-12-11T12:14:02.826Z,98262.78
2017-12-11T12:16:30.431Z,98255.46
2017-12-11T12:18:58.008Z,98274.66
2017-12-11T12:21:25.633Z,98273.86
2017-12-11T12:23:53.282Z,98259.13
2017-12-11T12:26:21.152Z,98251.22
2017-12-11T12:28:48.828Z,98259.44
2017-12-11T12:31:16.412Z,98265.03
2017-12-11T12:33:44.196Z,98262.20
2017-12-11T12:36:11.909Z,98249.42
2017-12-11T12:38:39.506Z,98268.99
2017-12-11T12:41:07.121Z,98273.19
2017-12-11T12:43:35.412Z,98271.56
2017-12-11T12:46:03.081Z,98281.71
2017-12-11T12:48:30.722Z,98277.03
2017-12-11T12:50:58.605Z,98267.80
2017-12-11T12:53:26.243Z,98255.95
2017-12-11T12:55:53.845Z,98264.70
2017-12-11T12:58:21.801Z,98256.16
2017-12-11T13:00:49.420Z,98255.13
2017-12-11T13:03:17.032Z,98249.05
2017-12-11T13:05:44.652Z,98248.00
2017-12-11T13:08:12.242Z,98257.74
2017-12-11T13:10:39.933Z,98241.50
2017-12-11T13:13:07.540Z,98216.41
2017-12-11T13:15:35.440Z,98212.36
2017-12-11T13:18:03.184Z,98215.80
2017-12-11T13:20:30.833Z,98224.81
2017-12-11T13:22:58.494Z,98216.37
2017-12-11T13:25:26.109Z,98215.64
2017-12-11T13:27:53.718Z,98196.39
2017-12-11T13:30:21.380Z,98188.38
2017-12-11T13:32:49.246Z,98192.45
2017-12-11T13:35:16.908Z,98185.38
2017-12-11T13:37:44.481Z,98184.22
2017-12-11T13:40:12.069Z,98183.10
2017-12-11T13:42:39.694Z,98162.30
2017-12-11T13:45:07.324Z,98160.70
2017-12-11T13:47:35.192Z,98163.47
2017-12-11T13:50:02.776Z,98165.27
2017-12-11T13:52:30.374Z,98165.90
2017-12-11T13:54:58.257Z,98167.39
2017-12-11T13:57:26.629Z,98176.74
2017-12-11T13:59:55.120Z,98168.20
2017-12-11T14:02:22.706Z,98153.41
2017-12-11T14:04:50.296Z,98133.50
2017-12-11T14:07:17.988Z,98127.73
2017-12-11T14:09:45.626Z,98120.20
2017-12-11T14:12:13.265Z,98110.26
2017-12-11T14:14:40.921Z,98112.58
2017-12-11T14:17:08.500Z,98101.64
2017-12-11T14:19:36.128Z,98103.37
2017-12-11T14:22:03.716Z,98101.73
2017-12-11T14:24:31.349Z,98112.17
2017-12-11T14:26:58.934Z,98105.50
2017-12-11T14:29:26.678Z,98106.32
2017-12-11T14:31:54.335Z,98109.45
2017-12-11T14:34:21.933Z,98110.46
2017-12-11T14:36:49.864Z,98118.08
2017-12-11T14:39:17.448Z,98121.23
2017-12-11T14:41:45.025Z,98129.14
2017-12-11T14:44:12.648Z,98136.41
2017-12-11T14:46:40.400Z,98136.23
2017-12-11T14:49:08.054Z,98122.23
2017-12-11T14:51:35.717Z,98124.95
2017-12-11T14:54:03.319Z,98115.72
2017-12-11T14:56:30.981Z,98124.05
2017-12-11T14:58:58.574Z,98124.27
2017-12-11T15:01:26.303Z,98114.42
2017-12-11T15:03:53.890Z,98115.62
2017-12-11T15:06:21.524Z,98105.08
2017-12-11T15:08:49.192Z,98105.29
2017-12-11T15:11:16.780Z,98107.01
2017-12-11T15:13:44.410Z,98100.22
2017-12-11T15:16:12.070Z,98098.38
2017-12-11T15:18:39.807Z,98094.39
2017-12-11T15:21:07.520Z,98088.03
2017-12-11T15:23:35.157Z,98091.06
2017-12-11T15:26:02.938Z,98086.47
2017-12-11T15:28:30.582Z,98082.60
2017-12-11T15:30:58.219Z,98080.01
2017-12-11T15:33:26.116Z,98085.16
2017-12-11T15:35:53.984Z,98074.02
2017-12-11T15:38:21.627Z,98082.73
2017-12-11T15:40:49.252Z,98084.56
2017-12-11T15:43:16.852Z,98089.23
2017-12-11T15:45:44.472Z,98078.37
2017-12-11T15:48:12.088Z,98079.80
2017-12-11T15:50:39.735Z,98078.69
2017-12-11T15:53:07.473Z,98078.06
2017-12-11T15:55:35.387Z,98085.59
2017-12-11T15:58:03.006Z,98082.52
2017-12-11T16:00:30.613Z,98090.33
2017-12-11T16:02:58.267Z,98077.05
2017-12-11T16:05:25.938Z,98077.66
2017-12-11T16:07:53.597Z,98081.09
2017-12-11T16:10:21.215Z,98074.81
2017-12-11T16:12:48.812Z,98071.28
2017-12-11T16:15:16.457Z,98062.23
2017-12-11T16:17:44.037Z,98069.78
2017-12-11T16:20:11.710Z,98066.41
2017-12-11T16:22:39.337Z,98061.12
2017-12-11T16:25:06.922Z,98067.23
2017-12-11T16:27:34.564Z,98064.48
2017-12-11T16:30:02.269Z,98071.59
2017-12-11T16:32:29.862Z,98065.80
2017-12-11T16:34:57.477Z,98062.73
2017-12-11T16:37:25.089Z,98065.58
2017-12-11T16:39:52.708Z,98068.14
2017-12-11T16:42:20.326Z,98071.78
2017-12-11T16:44:47.910Z,98081.91
2017-12-11T16:47:15.529Z,98074.60
2017-12-11T16:49:43.108Z,98056.95
2017-12-11T16:52:10.736Z,98060.31
2017-12-11T16:54:38.577Z,98056.77
2017-12-11T16:57:06.228Z,98065.69
2017-12-11T16:59:33.844Z,98055.14
2017-12-11T17:02:01.446Z,98057.78
2017-12-11T17:04:29.732Z,98066.61
2017-12-11T17:06:57.695Z,98056.79
2017-12-11T17:09:25.331Z,98060.77
2017-12-11T17:11:53.248Z,98053.36
2017-12-11T17:14:20.860Z,98063.00
2017-12-11T17:16:49.556Z,98061.37
2017-12-11T17:19:17.466Z,98060.05
2017-12-11T17:21:45.251Z,98060.44
2017-12-11T17:24:12.972Z,98059.95
2017-12-11T17:26:40.668Z,98057.10
2017-12-11T17:29:08.278Z,98054.67
2017-12-11T17:31:35.857Z,98062.39
2017-12-11T17:34:03.485Z,98051.72
2017-12-11T17:36:31.065Z,98039.94
2017-12-11T17:38:58.773Z,98045.31
2017-12-11T17:41:26.389Z,98037.31
2017-12-11T17:43:54.000Z,98044.22
2017-12-11T17:46:21.657Z,98040.58
2017-12-11T17:48:49.255Z,98038.73
2017-12-11T17:51:16.833Z,98036.70
2017-12-11T17:53:44.477Z,98036.69
2017-12-11T17:56:12.054Z,98034.05
2017-12-11T17:58:47.688Z,98036.27
2017-12-11T18:01:15.265Z,98039.84
2017-12-11T18:03:43.181Z,98040.52
2017-12-11T18:06:10.882Z,98040.11
2017-12-11T18:08:38.465Z,98042.87
2017-12-11T18:11:06.080Z,98047.44
2017-12-11T18:13:33.683Z,98050.37
2017-12-11T18:16:01.273Z,98042.15
2017-12-11T18:18:28.903Z,98047.54
2017-12-11T18:20:56.505Z,98040.44
2017-12-11T18:23:34.534Z,98039.10
2017-12-11T18:26:02.358Z,98039.88
2017-12-11T18:28:29.961Z,98045.17
2017-12-11T18:30:57.610Z,98041.11
2017-12-11T18:33:25.296Z,98049.64
2017-12-11T18:35:52.940Z,98056.55
2017-12-11T18:38:20.601Z,98061.41
2017-12-11T18:40:48.176Z,98065.38
2017-12-11T18:43:15.804Z,98070.27
2017-12-11T18:45:43.404Z,98070.36
2017-12-11T18:48:11.886Z,98070.86
2017-12-11T18:50:39.836Z,98072.70
2017-12-11T18:53:07.412Z,98069.52
2017-12-11T18:55:35.004Z,98064.45
2017-12-11T18:58:02.655Z,98063.13
2017-12-11T19:00:30.276Z,98049.59
2017-12-11T19:02:58.039Z,98041.36
2017-12-11T19:05:25.647Z,98042.67
2017-12-11T19:07:53.285Z,98047.64
2017-12-11T19:10:20.865Z,98049.49
2017-12-11T19:12:48.810Z,98039.63
2017-12-11T19:15:16.393Z,98044.08
2017-12-11T19:17:44.238Z,98053.02
2017-12-11T19:20:12.209Z,98049.16
2017-12-11T19:22:39.850Z,98044.31
2017-12-11T19:25:07.504Z,98040.83
2017-12-11T19:27:35.099Z,98038.36
2017-12-11T19:30:02.703Z,98027.45
2017-12-11T19:32:30.335Z,98017.19
2017-12-11T19:34:57.909Z,98024.23
2017-12-11T19:37:26.196Z,98022.09
2017-12-11T19:39:54.127Z,98017.59
2017-12-11T19:42:21.798Z,98014.20
2017-12-11T19:44:49.395Z,98004.45
2017-12-11T19:47:16.976Z,98000.72
2017-12-11T19:49:44.713Z,98005.19
2017-12-11T19:52:12.588Z,97988.28
2017-12-11T19:54:40.528Z,97977.30
2017-12-11T19:57:08.164Z,97973.23
2017-12-11T19:59:35.773Z,98004.95
2017-12-11T20:02:03.429Z,98031.25
2017-12-11T20:04:31.098Z,98008.72
2017-12-11T20:06:58.812Z,98006.98
2017-12-11T20:09:26.735Z,98031.22
2017-12-11T20:11:54.366Z,98052.56
2017-12-11T20:14:21.992Z,98051.86
2017-12-11T20:16:49.646Z,98056.87
2017-12-11T20:19:17.332Z,98049.32
2017-12-11T20:21:44.937Z,98048.03
2017-12-11T20:24:12.518Z,98043.73
2017-12-11T20:26:40.151Z,98049.22
2017-12-11T20:29:07.736Z,98050.30
2017-12-11T20:31:35.354Z,98047.36
2017-12-11T20:34:02.966Z,98047.39
2017-12-11T20:36:30.559Z,98040.74
2017-12-11T20:38:58.218Z,98043.08
2017-12-11T20:41:25.941Z,98044.34
2017-12-11T20:43:53.540Z,98039.18
2017-12-11T20:46:21.168Z,98027.55
2017-12-11T20:48:48.900Z,98027.37
2017-12-11T20:51:16.586Z,98030.84
2017-12-11T20:53:44.173Z,98036.84
2017-12-11T20:56:12.093Z,98029.16
2017-12-11T20:58:39.716Z,98039.20
2017-12-11T21:01:07.620Z,98035.42
2017-12-11T21:03:36.134Z,98053.69
2017-12-11T21:06:03.717Z,98064.81
2017-12-11T21:08:31.569Z,98058.27
2017-12-11T21:10:59.177Z,98053.89
2017-12-11T21:13:26.749Z,98045.61
2017-12-11T21:15:54.375Z,98066.16
2017-12-11T21:18:22.295Z,98072.09
2017-12-11T21:20:50.094Z,98067.79
2017-12-11T21:23:17.720Z,98071.14
2017-12-11T21:25:45.379Z,98081.73
2017-12-11T21:28:13.017Z,98133.22
2017-12-11T21:30:40.604Z,98132.98
2017-12-11T21:33:08.179Z,98136.34
2017-12-11T21:35:35.804Z,98142.75
2017-12-11T21:38:03.702Z,98149.97
2017-12-11T21:40:31.344Z,98156.48
2017-12-11T21:42:58.975Z,98146.31
2017-12-11T21:45:26.895Z,98142.03
2017-12-11T21:47:54.721Z,98146.98
2017-12-11T21:50:22.312Z,98150.17
2017-12-11T21:52:49.958Z,98146.10
2017-12-11T21:55:17.544Z,98145.08
2017-12-11T21:57:45.128Z,98140.61
2017-12-11T22:00:13.182Z,98145.86
2017-12-11T22:02:40.777Z,98146.07
2017-12-11T22:05:08.503Z,98144.75
2017-12-11T22:07:36.100Z,98159.30
2017-12-11T22:10:03.686Z,98154.41
2017-12-11T22:12:31.305Z,98158.28
2017-12-11T22:14:58.889Z,98160.62
2017-12-11T22:17:26.822Z,98152.03
2017-12-11T22:19:54.682Z,98150.20
2017-12-11T22:22:22.382Z,98152.23
2017-12-11T22:24:49.986Z,98148.16
2017-12-11T22:27:17.626Z,98146.94
2017-12-11T22:29:45.536Z,98154.14
2017-12-11T22:32:13.132Z,98152.80
2017-12-11T22:34:41.176Z,98154.23
2017-12-11T22:37:08.839Z,98154.73
2017-12-11T22:39:36.700Z,98165.09
2017-12-11T22:42:04.609Z,98157.95
2017-12-11T22:44:32.202Z,98163.97
2017-12-11T22:46:59.799Z,98165.90
2017-12-11T22:49:27.423Z,98173.20
2017-12-11T22:51:55.016Z,98175.95
2017-12-11T22:54:22.644Z,98186.23
2017-12-11T22:56:50.272Z,98193.77
2017-12-11T22:59:17.896Z,98203.03
2017-12-11T23:01:45.510Z,98205.98
2017-12-11T23:04:13.088Z,98202.01
2017-12-11T23:06:41.223Z,98186.94
2017-12-11T23:09:08.822Z,98185.88
2017-12-11T23:11:36.729Z,98202.17
2017-12-11T23:14:04.336Z,98208.39
2017-12-11T23:16:31.926Z,98195.76
2017-12-11T23:18:59.553Z,98189.23
2017-12-11T23:21:27.144Z,98191.48
2017-12-11T23:23:54.719Z,98196.98
2017-12-11T23:26:22.334Z,98195.45
2017-12-11T23:28:50.020Z,98193.00
2017-12-11T23:31:17.669Z,98192.49
2017-12-11T23:33:45.332Z,98198.98
2017-12-11T23:36:13.158Z,98189.95
2017-12-11T23:38:40.760Z,98190.02
2017-12-11T23:41:08.331Z,98195.31
2017-12-11T23:43:36.253Z,98203.45
2017-12-11T23:46:03.835Z,98209.77
2017-12-11T23:48:31.681Z,98210.48
2017-12-11T23:50:59.289Z,98213.91
2017-12-11T23:53:26.987Z,98229.63
2017-12-11T23:55:54.873Z,98224.80
2017-12-11T23:58:22.459Z,98212.69
